sensor_id;sensor_type;location;lat;lon;timestamp;pressure;altitude;pressure_sealevel;temperature
19040;BMP180;9652;49.014;12.052;2022-11-20T00:00:51;97268.00;;;5.10
19040;BMP180;9652;49.014;12.052;2022-11-20T00:03:18;97264.00;;;5.10
19040;BMP180;9652;49.014;12.052;2022-11-20T00:05:45;97262.00;;;5.20
19040;BMP180;9652;49.014;12.052;2022-11-20T00:08:13;97256.00;;;5.20
19040;BMP180;9652;49.014;12.052;2022-11-20T00:10:41;97270.00;;;5.20
19040;BMP180;9652;49.014;12.052;2022-11-20T00:13:09;97261.00;;;5.20
19040;BMP180;9652;49.014;12.052;2022-11-20T00:15:36;97267.00;;;5.20
19040;BMP180;9652;49.014;12.052;2022-11-20T00:18:03;97269.00;;;5.20
19040;BMP180;9652;49.014;12.052;2022-11-20T00:20:30;97263.00;;;5.20
19040;BMP180;9652;49.014;12.052;2022-11-20T00:22:57;97265.00;;;5.20
19040;BMP180;9652;49.014;12.052;2022-11-20T00:25:25;97259.00;;;5.20
19040;BMP180;9652;49.014;12.052;2022-11-20T00:27:53;97267.00;;;5.20
19040;BMP180;9652;49.014;12.052;2022-11-20T00:30:20;97266.00;;;5.20
19040;BMP180;9652;49.014;12.052;2022-11-20T00:32:47;97269.00;;;5.20
19040;BMP180;9652;49.014;12.052;2022-11-20T00:35:14;97277.00;;;5.20
19040;BMP180;9652;49.014;12.052;2022-11-20T00:37:42;97270.00;;;5.20
19040;BMP180;9652;49.014;12.052;2022-11-20T00:40:10;97269.00;;;5.20
19040;BMP180;9652;49.014;12.052;2022-11-20T00:42:38;97272.00;;;5.20
19040;BMP180;9652;49.014;12.052;2022-11-20T00:45:07;97270.00;;;5.20
19040;BMP180;9652;49.014;12.052;2022-11-20T00:47:34;97277.00;;;5.20
19040;BMP180;9652;49.014;12.052;2022-11-20T00:50:02;97273.00;;;5.30
19040;BMP180;9652;49.014;12.052;2022-11-20T00:52:29;97273.00;;;5.30
19040;BMP180;9652;49.014;12.052;2022-11-20T00:54:56;97270.00;;;5.30
19040;BMP180;9652;49.014;12.052;2022-11-20T00:57:23;97271.00;;;5.30
19040;BMP180;9652;49.014;12.052;2022-11-20T00:59:50;97263.00;;;5.30
19040;BMP180;9652;49.014;12.052;2022-11-20T01:02:19;97263.00;;;5.30
19040;BMP180;9652;49.014;12.052;2022-11-20T01:04:46;97258.00;;;5.30
19040;BMP180;9652;49.014;12.052;2022-11-20T01:07:13;97257.00;;;5.30
19040;BMP180;9652;49.014;12.052;2022-11-20T01:09:40;97255.00;;;5.30
19040;BMP180;9652;49.014;12.052;2022-11-20T01:12:07;97268.00;;;5.30
19040;BMP180;9652;49.014;12.052;2022-11-20T01:14:34;97269.00;;;5.30
19040;BMP180;9652;49.014;12.052;2022-11-20T01:17:01;97265.00;;;5.40
19040;BMP180;9652;49.014;12.052;2022-11-20T01:19:30;97279.00;;;5.40
19040;BMP180;9652;49.014;12.052;2022-11-20T01:21:57;97274.00;;;5.40
19040;BMP180;9652;49.014;12.052;2022-11-20T01:24:24;97276.00;;;5.40
19040;BMP180;9652;49.014;12.052;2022-11-20T01:26:51;97282.00;;;5.40
19040;BMP180;9652;49.014;12.052;2022-11-20T01:29:21;97284.00;;;5.40
19040;BMP180;9652;49.014;12.052;2022-11-20T01:31:48;97277.00;;;5.40
19040;BMP180;9652;49.014;12.052;2022-11-20T01:34:18;97259.00;;;5.40
19040;BMP180;9652;49.014;12.052;2022-11-20T01:36:49;97278.00;;;5.40
19040;BMP180;9652;49.014;12.052;2022-11-20T01:39:19;97278.00;;;5.40
19040;BMP180;9652;49.014;12.052;2022-11-20T01:41:49;97291.00;;;5.40
19040;BMP180;9652;49.014;12.052;2022-11-20T01:44:53;97280.00;;;5.40
19040;BMP180;9652;49.014;12.052;2022-11-20T01:47:28;97288.00;;;5.40
19040;BMP180;9652;49.014;12.052;2022-11-20T01:50:04;97287.00;;;5.40
19040;BMP180;9652;49.014;12.052;2022-11-20T01:52:38;97288.00;;;5.40
19040;BMP180;9652;49.014;12.052;2022-11-20T01:55:09;97272.00;;;5.50
19040;BMP180;9652;49.014;12.052;2022-11-20T01:57:40;97285.00;;;5.20
19040;BMP180;9652;49.014;12.052;2022-11-20T02:00:12;97274.00;;;5.40
19040;BMP180;9652;49.014;12.052;2022-11-20T02:02:44;97256.00;;;5.50
19040;BMP180;9652;49.014;12.052;2022-11-20T02:05:22;97270.00;;;5.50
19040;BMP180;9652;49.014;12.052;2022-11-20T02:07:54;97269.00;;;5.50
19040;BMP180;9652;49.014;12.052;2022-11-20T02:10:22;97271.00;;;5.50
19040;BMP180;9652;49.014;12.052;2022-11-20T02:12:49;97272.00;;;5.50
19040;BMP180;9652;49.014;12.052;2022-11-20T02:15:34;97243.00;;;5.50
19040;BMP180;9652;49.014;12.052;2022-11-20T02:18:01;97269.00;;;5.50
19040;BMP180;9652;49.014;12.052;2022-11-20T02:20:29;97254.00;;;5.50
19040;BMP180;9652;49.014;12.052;2022-11-20T02:23:04;97263.00;;;5.50
19040;BMP180;9652;49.014;12.052;2022-11-20T02:25:36;97261.00;;;5.50
19040;BMP180;9652;49.014;12.052;2022-11-20T02:28:04;97266.00;;;5.50
19040;BMP180;9652;49.014;12.052;2022-11-20T02:30:32;97265.00;;;5.60
19040;BMP180;9652;49.014;12.052;2022-11-20T02:32:59;97272.00;;;5.60
19040;BMP180;9652;49.014;12.052;2022-11-20T02:35:43;97274.00;;;5.50
19040;BMP180;9652;49.014;12.052;2022-11-20T02:38:10;97274.00;;;5.60
19040;BMP180;9652;49.014;12.052;2022-11-20T02:40:39;97279.00;;;5.60
19040;BMP180;9652;49.014;12.052;2022-11-20T02:43:07;97257.00;;;5.60
19040;BMP180;9652;49.014;12.052;2022-11-20T02:45:34;97263.00;;;5.70
19040;BMP180;9652;49.014;12.052;2022-11-20T02:48:01;97235.00;;;5.60
19040;BMP180;9652;49.014;12.052;2022-11-20T02:50:28;97261.00;;;5.70
19040;BMP180;9652;49.014;12.052;2022-11-20T02:52:56;97265.00;;;5.70
19040;BMP180;9652;49.014;12.052;2022-11-20T02:55:23;97253.00;;;5.70
19040;BMP180;9652;49.014;12.052;2022-11-20T02:57:51;97259.00;;;5.70
19040;BMP180;9652;49.014;12.052;2022-11-20T03:00:19;97252.00;;;5.70
19040;BMP180;9652;49.014;12.052;2022-11-20T03:02:46;97256.00;;;5.60
19040;BMP180;9652;49.014;12.052;2022-11-20T03:05:13;97255.00;;;5.70
19040;BMP180;9652;49.014;12.052;2022-11-20T03:07:40;97249.00;;;5.70
19040;BMP180;9652;49.014;12.052;2022-11-20T03:10:08;97211.00;;;5.60
19040;BMP180;9652;49.014;12.052;2022-11-20T03:12:36;97234.00;;;5.60
19040;BMP180;9652;49.014;12.052;2022-11-20T03:15:05;97247.00;;;5.60
19040;BMP180;9652;49.014;12.052;2022-11-20T03:17:33;97246.00;;;5.60
19040;BMP180;9652;49.014;12.052;2022-11-20T03:20:00;97242.00;;;5.60
19040;BMP180;9652;49.014;12.052;2022-11-20T03:22:29;97238.00;;;5.60
19040;BMP180;9652;49.014;12.052;2022-11-20T03:24:56;97242.00;;;5.70
19040;BMP180;9652;49.014;12.052;2022-11-20T03:27:23;97235.00;;;5.70
19040;BMP180;9652;49.014;12.052;2022-11-20T03:29:50;97244.00;;;5.70
19040;BMP180;9652;49.014;12.052;2022-11-20T03:32:18;97255.00;;;5.70
19040;BMP180;9652;49.014;12.052;2022-11-20T03:34:46;97244.00;;;5.70
19040;BMP180;9652;49.014;12.052;2022-11-20T03:37:13;97254.00;;;5.70
19040;BMP180;9652;49.014;12.052;2022-11-20T03:39:40;97263.00;;;5.70
19040;BMP180;9652;49.014;12.052;2022-11-20T03:42:08;97263.00;;;5.70
19040;BMP180;9652;49.014;12.052;2022-11-20T03:44:55;97241.00;;;5.80
19040;BMP180;9652;49.014;12.052;2022-11-20T03:47:24;97233.00;;;5.80
19040;BMP180;9652;49.014;12.052;2022-11-20T03:49:51;97247.00;;;5.80
19040;BMP180;9652;49.014;12.052;2022-11-20T03:52:18;97244.00;;;5.80
19040;BMP180;9652;49.014;12.052;2022-11-20T03:54:45;97244.00;;;5.80
19040;BMP180;9652;49.014;12.052;2022-11-20T03:57:12;97252.00;;;5.80
19040;BMP180;9652;49.014;12.052;2022-11-20T03:59:40;97243.00;;;5.90
19040;BMP180;9652;49.014;12.052;2022-11-20T04:02:07;97248.00;;;5.90
19040;BMP180;9652;49.014;12.052;2022-11-20T04:04:35;97257.00;;;5.90
19040;BMP180;9652;49.014;12.052;2022-11-20T04:07:03;97249.00;;;5.90
19040;BMP180;9652;49.014;12.052;2022-11-20T04:09:30;97245.00;;;5.90
19040;BMP180;9652;49.014;12.052;2022-11-20T04:11:57;97242.00;;;5.90
19040;BMP180;9652;49.014;12.052;2022-11-20T04:14:25;97242.00;;;5.90
19040;BMP180;9652;49.014;12.052;2022-11-20T04:16:52;97246.00;;;5.90
19040;BMP180;9652;49.014;12.052;2022-11-20T04:19:19;97252.00;;;5.90
19040;BMP180;9652;49.014;12.052;2022-11-20T04:21:47;97239.00;;;5.90
19040;BMP180;9652;49.014;12.052;2022-11-20T04:24:14;97233.00;;;5.90
19040;BMP180;9652;49.014;12.052;2022-11-20T04:26:42;97237.00;;;5.90
19040;BMP180;9652;49.014;12.052;2022-11-20T04:29:11;97243.00;;;5.90
19040;BMP180;9652;49.014;12.052;2022-11-20T04:31:38;97239.00;;;5.90
19040;BMP180;9652;49.014;12.052;2022-11-20T04:34:07;97235.00;;;5.90
19040;BMP180;9652;49.014;12.052;2022-11-20T04:36:34;97231.00;;;5.90
19040;BMP180;9652;49.014;12.052;2022-11-20T04:39:05;97236.00;;;5.80
19040;BMP180;9652;49.014;12.052;2022-11-20T04:41:35;97227.00;;;6.00
19040;BMP180;9652;49.014;12.052;2022-11-20T04:44:05;97229.00;;;6.00
19040;BMP180;9652;49.014;12.052;2022-11-20T04:46:36;97233.00;;;6.00
19040;BMP180;9652;49.014;12.052;2022-11-20T04:49:04;97236.00;;;6.00
19040;BMP180;9652;49.014;12.052;2022-11-20T04:51:33;97217.00;;;6.00
19040;BMP180;9652;49.014;12.052;2022-11-20T04:54:00;97228.00;;;6.00
19040;BMP180;9652;49.014;12.052;2022-11-20T04:56:28;97229.00;;;6.00
19040;BMP180;9652;49.014;12.052;2022-11-20T04:59:00;97228.00;;;6.00
19040;BMP180;9652;49.014;12.052;2022-11-20T05:01:27;97217.00;;;6.00
19040;BMP180;9652;49.014;12.052;2022-11-20T05:03:54;97218.00;;;6.00
19040;BMP180;9652;49.014;12.052;2022-11-20T05:06:22;97232.00;;;6.00
19040;BMP180;9652;49.014;12.052;2022-11-20T05:08:49;97215.00;;;6.00
19040;BMP180;9652;49.014;12.052;2022-11-20T05:11:20;97214.00;;;6.00
19040;BMP180;9652;49.014;12.052;2022-11-20T05:13:49;97222.00;;;6.00
19040;BMP180;9652;49.014;12.052;2022-11-20T05:16:19;97217.00;;;6.00
19040;BMP180;9652;49.014;12.052;2022-11-20T05:18:47;97225.00;;;6.00
19040;BMP180;9652;49.014;12.052;2022-11-20T05:21:16;97215.00;;;6.00
19040;BMP180;9652;49.014;12.052;2022-11-20T05:23:44;97226.00;;;6.00
19040;BMP180;9652;49.014;12.052;2022-11-20T05:26:14;97215.00;;;6.00
19040;BMP180;9652;49.014;12.052;2022-11-20T05:28:42;97221.00;;;6.00
19040;BMP180;9652;49.014;12.052;2022-11-20T05:31:13;97220.00;;;6.00
19040;BMP180;9652;49.014;12.052;2022-11-20T05:33:42;97237.00;;;6.10
19040;BMP180;9652;49.014;12.052;2022-11-20T05:36:12;97222.00;;;6.00
19040;BMP180;9652;49.014;12.052;2022-11-20T05:38:40;97218.00;;;6.10
19040;BMP180;9652;49.014;12.052;2022-11-20T05:41:10;97212.00;;;6.10
19040;BMP180;9652;49.014;12.052;2022-11-20T05:43:39;97231.00;;;6.10
19040;BMP180;9652;49.014;12.052;2022-11-20T05:46:11;97223.00;;;6.10
19040;BMP180;9652;49.014;12.052;2022-11-20T05:48:40;97217.00;;;6.10
19040;BMP180;9652;49.014;12.052;2022-11-20T05:51:11;97225.00;;;6.10
19040;BMP180;9652;49.014;12.052;2022-11-20T05:53:38;97213.00;;;6.10
19040;BMP180;9652;49.014;12.052;2022-11-20T05:56:09;97225.00;;;6.10
19040;BMP180;9652;49.014;12.052;2022-11-20T05:58:37;97226.00;;;6.10
19040;BMP180;9652;49.014;12.052;2022-11-20T06:01:08;97218.00;;;6.00
19040;BMP180;9652;49.014;12.052;2022-11-20T06:03:38;97230.00;;;6.10
19040;BMP180;9652;49.014;12.052;2022-11-20T06:06:06;97219.00;;;6.10
19040;BMP180;9652;49.014;12.052;2022-11-20T06:08:34;97231.00;;;6.00
19040;BMP180;9652;49.014;12.052;2022-11-20T06:11:04;97242.00;;;6.00
19040;BMP180;9652;49.014;12.052;2022-11-20T06:13:31;97225.00;;;6.00
19040;BMP180;9652;49.014;12.052;2022-11-20T06:15:58;97221.00;;;6.00
19040;BMP180;9652;49.014;12.052;2022-11-20T06:18:27;97228.00;;;6.00
19040;BMP180;9652;49.014;12.052;2022-11-20T06:21:05;97217.00;;;6.00
19040;BMP180;9652;49.014;12.052;2022-11-20T06:23:34;97207.00;;;6.00
19040;BMP180;9652;49.014;12.052;2022-11-20T06:26:03;97219.00;;;6.00
19040;BMP180;9652;49.014;12.052;2022-11-20T06:28:31;97214.00;;;6.00
19040;BMP180;9652;49.014;12.052;2022-11-20T06:30:58;97217.00;;;6.00
19040;BMP180;9652;49.014;12.052;2022-11-20T06:33:25;97219.00;;;6.00
19040;BMP180;9652;49.014;12.052;2022-11-20T06:35:55;97230.00;;;6.00
19040;BMP180;9652;49.014;12.052;2022-11-20T06:38:24;97222.00;;;6.00
19040;BMP180;9652;49.014;12.052;2022-11-20T06:40:51;97216.00;;;6.10
19040;BMP180;9652;49.014;12.052;2022-11-20T06:43:18;97222.00;;;6.00
19040;BMP180;9652;49.014;12.052;2022-11-20T06:45:46;97222.00;;;6.00
19040;BMP180;9652;49.014;12.052;2022-11-20T06:48:13;97228.00;;;6.10
19040;BMP180;9652;49.014;12.052;2022-11-20T06:50:40;97229.00;;;6.10
19040;BMP180;9652;49.014;12.052;2022-11-20T06:53:07;97234.00;;;6.10
19040;BMP180;9652;49.014;12.052;2022-11-20T06:55:36;97225.00;;;6.10
19040;BMP180;9652;49.014;12.052;2022-11-20T06:58:03;97224.00;;;6.10
19040;BMP180;9652;49.014;12.052;2022-11-20T07:00:30;97227.00;;;6.10
19040;BMP180;9652;49.014;12.052;2022-11-20T07:02:57;97228.00;;;6.10
19040;BMP180;9652;49.014;12.052;2022-11-20T07:05:24;97238.00;;;6.10
19040;BMP180;9652;49.014;12.052;2022-11-20T07:07:51;97238.00;;;6.10
19040;BMP180;9652;49.014;12.052;2022-11-20T07:10:18;97231.00;;;6.10
19040;BMP180;9652;49.014;12.052;2022-11-20T07:12:52;97228.00;;;6.10
19040;BMP180;9652;49.014;12.052;2022-11-20T07:15:21;97240.00;;;6.20
19040;BMP180;9652;49.014;12.052;2022-11-20T07:17:48;97222.00;;;6.20
19040;BMP180;9652;49.014;12.052;2022-11-20T07:20:16;97235.00;;;6.20
19040;BMP180;9652;49.014;12.052;2022-11-20T07:22:43;97236.00;;;6.30
19040;BMP180;9652;49.014;12.052;2022-11-20T07:25:10;97227.00;;;6.30
19040;BMP180;9652;49.014;12.052;2022-11-20T07:27:37;97222.00;;;6.30
19040;BMP180;9652;49.014;12.052;2022-11-20T07:30:07;97220.00;;;6.30
19040;BMP180;9652;49.014;12.052;2022-11-20T07:32:34;97222.00;;;6.40
19040;BMP180;9652;49.014;12.052;2022-11-20T07:35:01;97224.00;;;6.40
19040;BMP180;9652;49.014;12.052;2022-11-20T07:37:29;97217.00;;;6.40
19040;BMP180;9652;49.014;12.052;2022-11-20T07:39:56;97221.00;;;6.50
19040;BMP180;9652;49.014;12.052;2022-11-20T07:42:23;97221.00;;;6.50
19040;BMP180;9652;49.014;12.052;2022-11-20T07:44:50;97219.00;;;6.60
19040;BMP180;9652;49.014;12.052;2022-11-20T07:47:19;97222.00;;;6.60
19040;BMP180;9652;49.014;12.052;2022-11-20T07:49:46;97234.00;;;6.70
19040;BMP180;9652;49.014;12.052;2022-11-20T07:52:14;97224.00;;;6.70
19040;BMP180;9652;49.014;12.052;2022-11-20T07:54:42;97223.00;;;6.70
19040;BMP180;9652;49.014;12.052;2022-11-20T07:57:10;97227.00;;;6.70
19040;BMP180;9652;49.014;12.052;2022-11-20T07:59:37;97229.00;;;6.70
19040;BMP180;9652;49.014;12.052;2022-11-20T08:02:04;97226.00;;;6.80
19040;BMP180;9652;49.014;12.052;2022-11-20T08:04:33;97230.00;;;6.80
19040;BMP180;9652;49.014;12.052;2022-11-20T08:07:00;97236.00;;;6.80
19040;BMP180;9652;49.014;12.052;2022-11-20T08:09:27;97241.00;;;6.90
19040;BMP180;9652;49.014;12.052;2022-11-20T08:11:54;97228.00;;;6.90
19040;BMP180;9652;49.014;12.052;2022-11-20T08:14:39;97226.00;;;6.90
19040;BMP180;9652;49.014;12.052;2022-11-20T08:17:06;97224.00;;;6.90
19040;BMP180;9652;49.014;12.052;2022-11-20T08:19:35;97240.00;;;7.00
19040;BMP180;9652;49.014;12.052;2022-11-20T08:22:02;97233.00;;;7.00
19040;BMP180;9652;49.014;12.052;2022-11-20T08:24:29;97231.00;;;7.10
19040;BMP180;9652;49.014;12.052;2022-11-20T08:26:57;97241.00;;;7.20
19040;BMP180;9652;49.014;12.052;2022-11-20T08:29:26;97244.00;;;7.20
19040;BMP180;9652;49.014;12.052;2022-11-20T08:31:53;97234.00;;;7.20
19040;BMP180;9652;49.014;12.052;2022-11-20T08:34:20;97238.00;;;7.30
19040;BMP180;9652;49.014;12.052;2022-11-20T08:36:49;97234.00;;;7.40
19040;BMP180;9652;49.014;12.052;2022-11-20T08:39:16;97239.00;;;7.40
19040;BMP180;9652;49.014;12.052;2022-11-20T08:41:43;97227.00;;;7.50
19040;BMP180;9652;49.014;12.052;2022-11-20T08:44:10;97242.00;;;7.60
19040;BMP180;9652;49.014;12.052;2022-11-20T08:46:40;97242.00;;;7.60
19040;BMP180;9652;49.014;12.052;2022-11-20T08:49:11;97241.00;;;7.60
19040;BMP180;9652;49.014;12.052;2022-11-20T08:51:39;97238.00;;;7.70
19040;BMP180;9652;49.014;12.052;2022-11-20T08:54:08;97219.00;;;7.80
19040;BMP180;9652;49.014;12.052;2022-11-20T08:56:35;97214.00;;;7.80
19040;BMP180;9652;49.014;12.052;2022-11-20T08:59:03;97247.00;;;7.90
19040;BMP180;9652;49.014;12.052;2022-11-20T09:01:30;97239.00;;;8.00
19040;BMP180;9652;49.014;12.052;2022-11-20T09:03:57;97237.00;;;8.00
19040;BMP180;9652;49.014;12.052;2022-11-20T09:06:25;97236.00;;;8.10
19040;BMP180;9652;49.014;12.052;2022-11-20T09:08:53;97235.00;;;8.10
19040;BMP180;9652;49.014;12.052;2022-11-20T09:11:21;97231.00;;;8.20
19040;BMP180;9652;49.014;12.052;2022-11-20T09:13:49;97228.00;;;8.20
19040;BMP180;9652;49.014;12.052;2022-11-20T09:16:16;97181.00;;;8.30
19040;BMP180;9652;49.014;12.052;2022-11-20T09:18:43;97215.00;;;8.30
19040;BMP180;9652;49.014;12.052;2022-11-20T09:21:12;97232.00;;;8.30
19040;BMP180;9652;49.014;12.052;2022-11-20T09:23:40;97240.00;;;8.40
19040;BMP180;9652;49.014;12.052;2022-11-20T09:26:10;97222.00;;;8.40
19040;BMP180;9652;49.014;12.052;2022-11-20T09:28:40;97222.00;;;8.40
19040;BMP180;9652;49.014;12.052;2022-11-20T09:31:08;97221.00;;;8.50
19040;BMP180;9652;49.014;12.052;2022-11-20T09:33:36;97228.00;;;8.50
19040;BMP180;9652;49.014;12.052;2022-11-20T09:36:04;97228.00;;;8.60
19040;BMP180;9652;49.014;12.052;2022-11-20T09:38:31;97231.00;;;8.70
19040;BMP180;9652;49.014;12.052;2022-11-20T09:41:04;97225.00;;;8.70
19040;BMP180;9652;49.014;12.052;2022-11-20T09:43:54;97232.00;;;8.80
19040;BMP180;9652;49.014;12.052;2022-11-20T09:46:32;97236.00;;;8.90
19040;BMP180;9652;49.014;12.052;2022-11-20T09:49:23;97229.00;;;8.90
19040;BMP180;9652;49.014;12.052;2022-11-20T09:51:58;97229.00;;;9.00
19040;BMP180;9652;49.014;12.052;2022-11-20T09:54:30;97225.00;;;9.00
19040;BMP180;9652;49.014;12.052;2022-11-20T09:57:02;97229.00;;;9.00
19040;BMP180;9652;49.014;12.052;2022-11-20T09:59:38;97231.00;;;9.00
19040;BMP180;9652;49.014;12.052;2022-11-20T10:02:22;97226.00;;;9.00
19040;BMP180;9652;49.014;12.052;2022-11-20T10:04:58;97227.00;;;9.00
19040;BMP180;9652;49.014;12.052;2022-11-20T10:07:37;97223.00;;;9.00
19040;BMP180;9652;49.014;12.052;2022-11-20T10:10:15;97211.00;;;9.00
19040;BMP180;9652;49.014;12.052;2022-11-20T10:13:00;97219.00;;;9.00
19040;BMP180;9652;49.014;12.052;2022-11-20T10:15:44;97234.00;;;9.00
19040;BMP180;9652;49.014;12.052;2022-11-20T10:18:30;97209.00;;;9.00
19040;BMP180;9652;49.014;12.052;2022-11-20T10:21:17;97199.00;;;9.00
19040;BMP180;9652;49.014;12.052;2022-11-20T10:24:21;97215.00;;;9.10
19040;BMP180;9652;49.014;12.052;2022-11-20T10:27:03;97216.00;;;9.10
19040;BMP180;9652;49.014;12.052;2022-11-20T10:29:34;97209.00;;;9.10
19040;BMP180;9652;49.014;12.052;2022-11-20T10:32:11;97212.00;;;9.10
19040;BMP180;9652;49.014;12.052;2022-11-20T10:34:50;97217.00;;;9.20
19040;BMP180;9652;49.014;12.052;2022-11-20T10:37:23;97212.00;;;9.20
19040;BMP180;9652;49.014;12.052;2022-11-20T10:39:58;97204.00;;;9.20
19040;BMP180;9652;49.014;12.052;2022-11-20T10:42:36;97205.00;;;9.20
19040;BMP180;9652;49.014;12.052;2022-11-20T10:45:18;97190.00;;;9.20
19040;BMP180;9652;49.014;12.052;2022-11-20T10:47:49;97205.00;;;9.30
19040;BMP180;9652;49.014;12.052;2022-11-20T10:50:21;97199.00;;;9.30
19040;BMP180;9652;49.014;12.052;2022-11-20T10:52:59;97181.00;;;9.30
19040;BMP180;9652;49.014;12.052;2022-11-20T10:55:40;97186.00;;;9.30
19040;BMP180;9652;49.014;12.052;2022-11-20T10:58:15;97205.00;;;9.30
19040;BMP180;9652;49.014;12.052;2022-11-20T11:00:43;97197.00;;;9.40
19040;BMP180;9652;49.014;12.052;2022-11-20T11:03:24;97200.00;;;9.50
19040;BMP180;9652;49.014;12.052;2022-11-20T11:05:59;97183.00;;;9.60
19040;BMP180;9652;49.014;12.052;2022-11-20T11:08:35;97189.00;;;9.60
19040;BMP180;9652;49.014;12.052;2022-11-20T11:11:20;97196.00;;;9.60
19040;BMP180;9652;49.014;12.052;2022-11-20T11:13:48;97184.00;;;9.60
19040;BMP180;9652;49.014;12.052;2022-11-20T11:16:23;97192.00;;;9.70
19040;BMP180;9652;49.014;12.052;2022-11-20T11:19:03;97125.00;;;9.70
19040;BMP180;9652;49.014;12.052;2022-11-20T11:21:31;97191.00;;;9.70
19040;BMP180;9652;49.014;12.052;2022-11-20T11:24:01;97188.00;;;9.70
19040;BMP180;9652;49.014;12.052;2022-11-20T11:26:28;97192.00;;;9.70
19040;BMP180;9652;49.014;12.052;2022-11-20T11:28:57;97173.00;;;9.70
19040;BMP180;9652;49.014;12.052;2022-11-20T11:31:28;97176.00;;;9.70
19040;BMP180;9652;49.014;12.052;2022-11-20T11:34:06;97178.00;;;9.60
19040;BMP180;9652;49.014;12.052;2022-11-20T11:36:35;97180.00;;;9.60
19040;BMP180;9652;49.014;12.052;2022-11-20T11:39:05;97181.00;;;9.60
19040;BMP180;9652;49.014;12.052;2022-11-20T11:41:34;97180.00;;;9.60
19040;BMP180;9652;49.014;12.052;2022-11-20T11:44:17;97179.00;;;9.60
19040;BMP180;9652;49.014;12.052;2022-11-20T11:47:05;97176.00;;;9.60
19040;BMP180;9652;49.014;12.052;2022-11-20T11:49:37;97173.00;;;9.60
19040;BMP180;9652;49.014;12.052;2022-11-20T11:52:13;97174.00;;;9.60
19040;BMP180;9652;49.014;12.052;2022-11-20T11:54:48;97178.00;;;9.60
19040;BMP180;9652;49.014;12.052;2022-11-20T11:57:24;97172.00;;;9.60
19040;BMP180;9652;49.014;12.052;2022-11-20T12:00:02;97167.00;;;9.70
19040;BMP180;9652;49.014;12.052;2022-11-20T12:02:38;97159.00;;;9.70
19040;BMP180;9652;49.014;12.052;2022-11-20T12:05:19;97162.00;;;9.70
19040;BMP180;9652;49.014;12.052;2022-11-20T12:07:53;97171.00;;;9.70
19040;BMP180;9652;49.014;12.052;2022-11-20T12:10:37;97167.00;;;9.80
19040;BMP180;9652;49.014;12.052;2022-11-20T12:13:34;97171.00;;;9.80
19040;BMP180;9652;49.014;12.052;2022-11-20T12:16:05;97166.00;;;9.80
19040;BMP180;9652;49.014;12.052;2022-11-20T12:18:33;97164.00;;;9.90
19040;BMP180;9652;49.014;12.052;2022-11-20T12:21:20;97172.00;;;9.80
19040;BMP180;9652;49.014;12.052;2022-11-20T12:24:06;97155.00;;;9.90
19040;BMP180;9652;49.014;12.052;2022-11-20T12:26:57;97148.00;;;9.90
19040;BMP180;9652;49.014;12.052;2022-11-20T12:29:43;97154.00;;;10.00
19040;BMP180;9652;49.014;12.052;2022-11-20T12:32:58;97148.00;;;10.00
19040;BMP180;9652;49.014;12.052;2022-11-20T12:35:51;97149.00;;;10.00
19040;BMP180;9652;49.014;12.052;2022-11-20T12:42:31;97156.00;;;10.10
19040;BMP180;9652;49.014;12.052;2022-11-20T12:48:42;97124.00;;;10.20
19040;BMP180;9652;49.014;12.052;2022-11-20T12:55:02;97139.00;;;10.20
19040;BMP180;9652;49.014;12.052;2022-11-20T12:57:50;97141.00;;;10.30
19040;BMP180;9652;49.014;12.052;2022-11-20T13:00:24;97116.00;;;10.30
19040;BMP180;9652;49.014;12.052;2022-11-20T13:03:24;97143.00;;;10.30
19040;BMP180;9652;49.014;12.052;2022-11-20T13:06:10;97143.00;;;10.30
19040;BMP180;9652;49.014;12.052;2022-11-20T13:08:56;97146.00;;;10.40
19040;BMP180;9652;49.014;12.052;2022-11-20T13:11:32;97136.00;;;10.40
19040;BMP180;9652;49.014;12.052;2022-11-20T13:14:23;97129.00;;;10.40
19040;BMP180;9652;49.014;12.052;2022-11-20T13:17:04;97137.00;;;10.40
19040;BMP180;9652;49.014;12.052;2022-11-20T13:20:17;97138.00;;;10.40
19040;BMP180;9652;49.014;12.052;2022-11-20T13:22:52;97114.00;;;10.40
19040;BMP180;9652;49.014;12.052;2022-11-20T13:25:25;97137.00;;;10.40
19040;BMP180;9652;49.014;12.052;2022-11-20T13:27:58;97128.00;;;10.50
19040;BMP180;9652;49.014;12.052;2022-11-20T13:30:31;97125.00;;;10.50
19040;BMP180;9652;49.014;12.052;2022-11-20T13:33:05;97121.00;;;10.50
19040;BMP180;9652;49.014;12.052;2022-11-20T13:35:35;97119.00;;;10.50
19040;BMP180;9652;49.014;12.052;2022-11-20T13:38:07;97125.00;;;10.50
19040;BMP180;9652;49.014;12.052;2022-11-20T13:40:37;97117.00;;;10.50
19040;BMP180;9652;49.014;12.052;2022-11-20T13:43:18;97131.00;;;10.50
19040;BMP180;9652;49.014;12.052;2022-11-20T13:45:59;97144.00;;;10.50
19040;BMP180;9652;49.014;12.052;2022-11-20T13:48:33;97133.00;;;10.50
19040;BMP180;9652;49.014;12.052;2022-11-20T13:51:26;97124.00;;;10.40
19040;BMP180;9652;49.014;12.052;2022-11-20T13:54:32;97136.00;;;10.40
19040;BMP180;9652;49.014;12.052;2022-11-20T14:00:15;97109.00;;;10.30
19040;BMP180;9652;49.014;12.052;2022-11-20T14:03:08;97130.00;;;10.20
19040;BMP180;9652;49.014;12.052;2022-11-20T14:05:47;97086.00;;;10.20
19040;BMP180;9652;49.014;12.052;2022-11-20T14:08:29;97127.00;;;10.10
19040;BMP180;9652;49.014;12.052;2022-11-20T14:11:16;97125.00;;;10.10
19040;BMP180;9652;49.014;12.052;2022-11-20T14:14:05;97120.00;;;10.00
19040;BMP180;9652;49.014;12.052;2022-11-20T14:16:47;97142.00;;;10.00
19040;BMP180;9652;49.014;12.052;2022-11-20T14:19:30;97136.00;;;9.60
19040;BMP180;9652;49.014;12.052;2022-11-20T14:22:18;97127.00;;;10.00
19040;BMP180;9652;49.014;12.052;2022-11-20T14:25:02;97135.00;;;9.90
19040;BMP180;9652;49.014;12.052;2022-11-20T14:27:36;97104.00;;;9.90
19040;BMP180;9652;49.014;12.052;2022-11-20T14:30:05;97130.00;;;9.90
19040;BMP180;9652;49.014;12.052;2022-11-20T14:32:35;97123.00;;;9.90
19040;BMP180;9652;49.014;12.052;2022-11-20T14:35:16;97119.00;;;9.90
19040;BMP180;9652;49.014;12.052;2022-11-20T14:37:45;97138.00;;;9.90
19040;BMP180;9652;49.014;12.052;2022-11-20T14:40:32;97097.00;;;9.90
19040;BMP180;9652;49.014;12.052;2022-11-20T14:43:19;97126.00;;;9.80
19040;BMP180;9652;49.014;12.052;2022-11-20T14:45:58;97121.00;;;9.80
19040;BMP180;9652;49.014;12.052;2022-11-20T14:48:38;97123.00;;;9.80
19040;BMP180;9652;49.014;12.052;2022-11-20T14:51:09;97121.00;;;9.80
19040;BMP180;9652;49.014;12.052;2022-11-20T14:53:37;97123.00;;;9.80
19040;BMP180;9652;49.014;12.052;2022-11-20T14:56:04;97117.00;;;9.80
19040;BMP180;9652;49.014;12.052;2022-11-20T14:58:34;97120.00;;;9.80
19040;BMP180;9652;49.014;12.052;2022-11-20T15:01:04;97111.00;;;9.70